createdAt,value
2022-10-27T00:00:38.810Z,14.57
2022-10-27T00:03:05.832Z,13.60
2022-10-27T00:05:34.405Z,12.73
2022-10-27T00:08:01.145Z,19.38
2022-10-27T00:10:28.047Z,26.85
2022-10-27T00:12:55.156Z,22.40
2022-10-27T00:15:21.883Z,19.05
2022-10-27T00:17:48.649Z,23.08
2022-10-27T00:20:15.373Z,19.35
2022-10-27T00:22:42.118Z,17.95
2022-10-27T00:25:09.079Z,17.45
2022-10-27T00:27:36.057Z,16.90
2022-10-27T00:30:03.017Z,19.08
2022-10-27T00:32:30.136Z,19.30
2022-10-27T00:34:56.902Z,14.50
2022-10-27T00:37:23.669Z,15.15
2022-10-27T00:39:50.343Z,12.05
2022-10-27T00:42:17.004Z,11.35
2022-10-27T00:44:47.324Z,11.75
2022-10-27T00:47:23.812Z,11.68
2022-10-27T00:50:07.196Z,11.10
2022-10-27T00:52:37.433Z,12.60
2022-10-27T00:55:08.382Z,12.50
2022-10-27T00:57:35.517Z,13.98
2022-10-27T01:00:04.919Z,16.52
2022-10-27T01:02:32.930Z,13.80
2022-10-27T01:05:13.389Z,10.77
2022-10-27T01:07:41.937Z,14.27
2022-10-27T01:10:08.797Z,16.70
2022-10-27T01:12:35.953Z,9.85
2022-10-27T01:15:03.327Z,11.60
2022-10-27T01:18:06.437Z,9.55
2022-10-27T01:21:28.809Z,6.78
2022-10-27T01:24:11.850Z,12.20
2022-10-27T01:26:51.949Z,5.97
2022-10-27T01:29:56.546Z,8.10
2022-10-27T01:33:12.476Z,6.53
2022-10-27T01:35:50.135Z,14.68
2022-10-27T01:38:21.157Z,9.77
2022-10-27T01:41:06.968Z,13.57
2022-10-27T01:43:35.275Z,11.50
2022-10-27T01:46:04.009Z,9.07
2022-10-27T01:48:33.714Z,14.00
2022-10-27T01:51:01.856Z,19.27
2022-10-27T01:53:31.836Z,14.52
2022-10-27T01:56:48.669Z,19.48
2022-10-27T01:59:44.930Z,19.00
2022-10-27T02:02:35.371Z,15.77
2022-10-27T02:05:42.922Z,15.45
2022-10-27T02:08:42.011Z,25.50
2022-10-27T02:11:10.421Z,39.63
2022-10-27T02:13:40.078Z,24.88
2022-10-27T02:16:09.556Z,34.03
2022-10-27T02:18:40.402Z,31.45
2022-10-27T02:21:09.340Z,31.80
2022-10-27T02:23:36.540Z,33.05
2022-10-27T02:26:21.276Z,41.75
2022-10-27T02:28:56.850Z,30.83
2022-10-27T02:31:33.808Z,39.15
2022-10-27T02:34:01.958Z,33.65
2022-10-27T02:36:29.214Z,27.63
2022-10-27T02:38:55.880Z,34.10
2022-10-27T02:41:23.116Z,34.58
2022-10-27T02:43:50.285Z,24.02
2022-10-27T02:46:17.090Z,13.20
2022-10-27T02:48:43.903Z,46.42
2022-10-27T02:51:11.821Z,37.90
2022-10-27T02:53:38.499Z,26.15
2022-10-27T02:56:05.691Z,23.10
2022-10-27T02:58:32.548Z,34.10
2022-10-27T03:00:59.411Z,12.48
2022-10-27T03:03:26.237Z,26.30
2022-10-27T03:05:53.167Z,13.85
2022-10-27T03:08:23.134Z,18.20
2022-10-27T03:10:50.090Z,21.65
2022-10-27T03:13:16.912Z,24.00
2022-10-27T03:15:46.432Z,19.52
2022-10-27T03:18:14.160Z,27.67
2022-10-27T03:20:44.198Z,25.85
2022-10-27T03:23:11.071Z,43.50
2022-10-27T03:25:42.597Z,20.80
2022-10-27T03:28:12.414Z,22.40
2022-10-27T03:30:40.220Z,31.25
2022-10-27T03:33:06.955Z,16.38
2022-10-27T03:35:33.887Z,17.65
2022-10-27T03:38:02.082Z,16.42
2022-10-27T03:40:29.421Z,39.70
2022-10-27T03:42:59.386Z,28.00
2022-10-27T03:45:27.003Z,21.20
2022-10-27T03:48:05.233Z,15.05
2022-10-27T03:50:32.394Z,36.58
2022-10-27T03:52:59.942Z,27.27
2022-10-27T03:55:27.111Z,29.95
2022-10-27T03:57:54.290Z,23.65
2022-10-27T04:00:21.181Z,22.50
2022-10-27T04:02:48.819Z,16.15
2022-10-27T04:05:15.954Z,27.88
2022-10-27T04:07:46.457Z,19.90
2022-10-27T04:10:14.741Z,26.15
2022-10-27T04:12:52.493Z,14.77
2022-10-27T04:15:20.683Z,31.08
2022-10-27T04:17:47.967Z,18.00
2022-10-27T04:20:14.993Z,26.73
2022-10-27T04:22:41.798Z,26.60
2022-10-27T04:25:08.840Z,35.45
2022-10-27T04:27:35.786Z,30.75
2022-10-27T04:30:02.727Z,33.85
2022-10-27T04:32:29.464Z,38.55
2022-10-27T04:34:56.150Z,35.55
2022-10-27T04:37:23.253Z,42.30
2022-10-27T04:39:49.914Z,28.13
2022-10-27T04:42:16.656Z,43.38
2022-10-27T04:44:43.434Z,16.77
2022-10-27T04:47:10.625Z,21.92
2022-10-27T04:49:37.398Z,60.03
2022-10-27T04:52:04.365Z,77.43
2022-10-27T04:54:31.323Z,54.17
2022-10-27T04:56:58.337Z,62.78
2022-10-27T04:59:25.137Z,55.38
2022-10-27T05:01:52.334Z,44.55
2022-10-27T05:04:19.367Z,18.70
2022-10-27T05:06:46.215Z,37.05
2022-10-27T05:09:12.986Z,17.20
2022-10-27T05:11:39.656Z,16.23
2022-10-27T05:14:06.413Z,36.33
2022-10-27T05:16:33.154Z,20.90
2022-10-27T05:19:00.085Z,36.17
2022-10-27T05:21:26.825Z,14.10
2022-10-27T05:23:53.559Z,16.38
2022-10-27T05:26:20.446Z,28.63
2022-10-27T05:28:48.405Z,25.23
2022-10-27T05:31:15.315Z,57.42
2022-10-27T05:33:42.076Z,33.67
2022-10-27T05:36:09.047Z,29.05
2022-10-27T05:38:38.481Z,19.02
2022-10-27T05:41:07.302Z,30.90
2022-10-27T05:43:37.718Z,29.30
2022-10-27T05:46:06.690Z,30.85
2022-10-27T05:48:33.574Z,29.98
2022-10-27T05:51:00.319Z,20.45
2022-10-27T05:53:26.994Z,22.08
2022-10-27T05:55:54.595Z,37.17
2022-10-27T05:58:21.756Z,18.70
2022-10-27T06:00:48.507Z,28.35
2022-10-27T06:03:23.271Z,19.00
2022-10-27T06:05:50.723Z,24.65
2022-10-27T06:08:18.218Z,28.35
2022-10-27T06:10:45.774Z,23.10
2022-10-27T06:13:16.405Z,19.90
2022-10-27T06:18:11.306Z,16.85
2022-10-27T06:20:37.973Z,20.13
2022-10-27T06:23:04.880Z,18.23
2022-10-27T06:25:31.730Z,26.58
2022-10-27T06:27:58.671Z,25.15
2022-10-27T06:30:25.609Z,21.63
2022-10-27T06:32:52.694Z,14.90
2022-10-27T06:35:20.359Z,16.15
2022-10-27T06:37:47.872Z,19.67
2022-10-27T06:40:17.622Z,17.65
2022-10-27T06:43:09.987Z,16.67
2022-10-27T06:45:31.599Z,16.00
2022-10-27T06:47:59.441Z,17.67
2022-10-27T06:50:26.452Z,12.15
2022-10-27T06:52:53.721Z,15.20
2022-10-27T06:55:21.094Z,17.20
2022-10-27T06:57:48.010Z,19.48
2022-10-27T07:00:15.317Z,28.10
2022-10-27T07:02:42.121Z,28.50
2022-10-27T07:05:09.672Z,24.55
2022-10-27T07:07:37.435Z,24.02
2022-10-27T07:10:06.499Z,23.13
2022-10-27T07:12:33.485Z,19.35
2022-10-27T07:15:00.258Z,16.30
2022-10-27T07:17:26.994Z,26.00
2022-10-27T07:19:53.672Z,15.30
2022-10-27T07:22:20.429Z,19.10
2022-10-27T07:24:47.128Z,18.15
2022-10-27T07:27:13.896Z,16.67
2022-10-27T07:29:41.045Z,17.13
2022-10-27T07:32:07.731Z,23.23
2022-10-27T07:34:34.461Z,17.77
2022-10-27T07:37:01.124Z,18.35
2022-10-27T07:39:28.009Z,18.73
2022-10-27T07:41:54.709Z,16.48
2022-10-27T07:44:21.630Z,18.58
2022-10-27T07:46:48.385Z,21.92
2022-10-27T07:49:15.314Z,19.13
2022-10-27T07:51:42.149Z,21.15
2022-10-27T07:54:09.330Z,23.05
2022-10-27T07:56:37.421Z,24.67
2022-10-27T07:59:05.102Z,22.30
2022-10-27T08:01:32.373Z,23.48
2022-10-27T08:03:59.390Z,27.48
2022-10-27T08:06:26.664Z,24.40
2022-10-27T08:08:53.459Z,23.38
2022-10-27T08:11:20.508Z,27.40
2022-10-27T08:13:47.307Z,30.05
2022-10-27T08:16:14.111Z,43.78
2022-10-27T08:18:40.812Z,34.85
2022-10-27T08:21:07.767Z,38.50
2022-10-27T08:23:34.466Z,36.03
2022-10-27T08:26:01.183Z,36.22
2022-10-27T08:28:28.201Z,40.03
2022-10-27T08:30:55.144Z,42.08
2022-10-27T08:33:22.941Z,46.28
2022-10-27T08:35:50.978Z,45.50
2022-10-27T08:38:18.494Z,48.42
2022-10-27T08:41:25.610Z,40.83
2022-10-27T08:44:41.854Z,36.83
2022-10-27T08:47:16.474Z,31.40
2022-10-27T08:49:51.807Z,27.70
2022-10-27T08:52:50.643Z,30.85
2022-10-27T08:55:24.166Z,26.05
2022-10-27T08:58:04.102Z,24.95
2022-10-27T09:00:36.823Z,27.42
2022-10-27T09:03:41.996Z,26.85
2022-10-27T09:06:23.440Z,21.67
2022-10-27T09:08:56.464Z,21.92
2022-10-27T09:11:57.318Z,22.27
2022-10-27T09:15:07.476Z,19.17
2022-10-27T09:17:41.784Z,21.17
2022-10-27T09:22:44.340Z,18.17
2022-10-27T09:25:19.610Z,16.67
2022-10-27T09:27:49.484Z,17.45
2022-10-27T09:30:17.072Z,15.70
2022-10-27T09:32:50.387Z,13.45
2022-10-27T09:35:29.197Z,13.43
2022-10-27T09:37:58.284Z,14.63
2022-10-27T09:40:26.255Z,13.00
2022-10-27T09:42:55.459Z,16.17
2022-10-27T09:45:26.903Z,13.32
2022-10-27T09:48:15.876Z,11.63
2022-10-27T09:51:13.714Z,12.40
2022-10-27T09:53:48.283Z,29.05
2022-10-27T09:56:38.289Z,11.93
2022-10-27T09:59:05.991Z,15.07
2022-10-27T10:01:59.867Z,11.93
2022-10-27T10:04:43.163Z,15.82
2022-10-27T10:07:40.636Z,13.40
2022-10-27T10:10:41.058Z,12.88
2022-10-27T10:13:13.885Z,12.25
2022-10-27T10:15:45.597Z,12.63
2022-10-27T10:18:28.941Z,14.00
2022-10-27T10:21:01.631Z,11.18
2022-10-27T10:23:31.337Z,10.52
2022-10-27T10:26:02.139Z,12.05
2022-10-27T10:28:35.626Z,11.05
2022-10-27T10:31:05.532Z,9.77
2022-10-27T10:33:45.319Z,8.90
2022-10-27T10:36:29.572Z,7.53
2022-10-27T10:38:58.771Z,6.82
2022-10-27T10:41:26.876Z,9.88
2022-10-27T10:44:16.613Z,7.22
2022-10-27T10:46:55.229Z,9.30
2022-10-27T10:49:27.476Z,7.68
2022-10-27T10:51:58.353Z,8.63
2022-10-27T10:54:28.404Z,7.82
2022-10-27T10:56:56.159Z,7.32
2022-10-27T10:59:31.285Z,10.30
2022-10-27T11:02:19.372Z,8.18
2022-10-27T11:04:49.590Z,7.25
2022-10-27T11:07:32.597Z,7.45
2022-10-27T11:10:15.000Z,6.45
2022-10-27T11:12:55.273Z,6.22
2022-10-27T11:15:28.703Z,6.05
2022-10-27T11:17:59.881Z,7.20
2022-10-27T11:20:32.132Z,6.53
2022-10-27T11:23:00.486Z,5.75
2022-10-27T11:25:32.366Z,5.13
2022-10-27T11:28:22.081Z,4.60
2022-10-27T11:31:21.351Z,10.10
2022-10-27T11:34:12.835Z,7.72
2022-10-27T11:36:47.085Z,4.60
2022-10-27T11:39:40.468Z,6.65
2022-10-27T11:42:21.069Z,4.35
2022-10-27T11:45:12.004Z,8.25
2022-10-27T11:47:44.700Z,5.10
2022-10-27T11:50:18.663Z,4.60
2022-10-27T11:52:50.172Z,5.15
2022-10-27T11:55:19.452Z,8.20
2022-10-27T11:58:00.882Z,6.47
2022-10-27T12:00:29.748Z,9.88
2022-10-27T12:03:39.528Z,5.40
2022-10-27T12:06:27.810Z,5.85
2022-10-27T12:09:33.487Z,4.88
2022-10-27T12:12:14.474Z,5.72
2022-10-27T12:14:52.032Z,7.13
2022-10-27T12:17:33.046Z,8.02
2022-10-27T12:20:04.112Z,7.78
2022-10-27T12:22:52.272Z,8.32
2022-10-27T12:25:29.151Z,6.75
2022-10-27T12:27:58.453Z,9.30
2022-10-27T12:30:25.945Z,6.68
2022-10-27T12:33:17.390Z,7.43
2022-10-27T12:36:09.714Z,6.70
2022-10-27T12:39:26.690Z,9.43
2022-10-27T12:42:18.213Z,5.00
2022-10-27T12:45:19.232Z,8.55
2022-10-27T12:48:05.003Z,7.32
2022-10-27T12:51:01.243Z,7.40
2022-10-27T12:53:48.919Z,8.48
2022-10-27T12:56:43.796Z,8.07
2022-10-27T13:00:09.479Z,5.47
2022-10-27T13:05:54.275Z,4.82
2022-10-27T13:08:58.191Z,10.57
2022-10-27T13:12:12.763Z,7.15
2022-10-27T13:18:20.853Z,4.13
2022-10-27T13:21:12.661Z,7.50
2022-10-27T13:23:47.732Z,4.25
2022-10-27T13:26:29.600Z,7.47
2022-10-27T13:29:00.416Z,6.22
2022-10-27T13:31:27.481Z,7.35
2022-10-27T13:34:20.806Z,5.10
2022-10-27T13:36:47.712Z,6.65
2022-10-27T13:39:34.735Z,6.63
2022-10-27T13:42:01.599Z,8.57
2022-10-27T13:44:33.859Z,7.65
2022-10-27T13:47:18.552Z,5.90
2022-10-27T13:49:59.162Z,8.40
2022-10-27T13:52:27.175Z,6.70
2022-10-27T13:55:29.078Z,7.65
2022-10-27T13:58:39.731Z,7.00
2022-10-27T14:01:31.116Z,5.00
2022-10-27T14:04:22.255Z,10.52
2022-10-27T14:07:03.859Z,10.90
2022-10-27T14:09:35.989Z,5.97
2022-10-27T14:12:16.256Z,7.95
2022-10-27T14:14:44.128Z,5.70
2022-10-27T14:17:22.026Z,8.10
2022-10-27T14:19:57.614Z,9.80
2022-10-27T14:22:46.386Z,9.00
2022-10-27T14:25:27.745Z,9.23
2022-10-27T14:28:20.875Z,10.30
2022-10-27T14:31:08.858Z,5.55
2022-10-27T14:33:38.609Z,5.55
2022-10-27T14:36:25.113Z,7.75
2022-10-27T14:39:05.109Z,6.63
2022-10-27T14:41:34.063Z,9.68
2022-10-27T14:44:03.011Z,7.07
2022-10-27T14:46:47.080Z,8.73
2022-10-27T14:49:18.510Z,10.82
2022-10-27T14:51:47.257Z,7.85
2022-10-27T14:54:18.896Z,6.43
2022-10-27T14:56:47.266Z,7.68
2022-10-27T14:59:32.533Z,7.15
2022-10-27T15:01:59.297Z,11.35
2022-10-27T15:04:27.860Z,9.10
2022-10-27T15:06:57.575Z,5.65
2022-10-27T15:09:39.855Z,11.30
2022-10-27T15:12:16.309Z,11.82
2022-10-27T15:14:45.834Z,7.15
2022-10-27T15:17:15.432Z,8.68
2022-10-27T15:19:52.565Z,8.70
2022-10-27T15:22:19.653Z,8.18
2022-10-27T15:24:46.890Z,11.40
2022-10-27T15:27:13.954Z,8.43
2022-10-27T15:29:42.667Z,7.80
2022-10-27T15:32:24.145Z,7.82
2022-10-27T15:34:51.231Z,16.48
2022-10-27T15:37:33.858Z,10.23
2022-10-27T15:40:21.475Z,8.10
2022-10-27T15:42:48.421Z,8.65
2022-10-27T15:45:50.651Z,6.53
2022-10-27T15:48:35.368Z,9.50
2022-10-27T15:51:07.618Z,14.32
2022-10-27T15:53:55.180Z,9.52
2022-10-27T15:56:40.893Z,11.15
2022-10-27T15:59:20.548Z,10.18
2022-10-27T16:01:49.210Z,9.90
2022-10-27T16:04:36.634Z,9.38
2022-10-27T16:07:33.014Z,10.23
2022-10-27T16:10:00.276Z,11.18
2022-10-27T16:12:29.665Z,9.45
2022-10-27T16:15:01.792Z,12.73
2022-10-27T16:17:35.701Z,7.57
2022-10-27T16:20:06.159Z,6.82
2022-10-27T16:22:33.105Z,11.90
2022-10-27T16:24:59.769Z,10.68
2022-10-27T16:27:27.074Z,10.63
2022-10-27T16:29:58.974Z,13.40
2022-10-27T16:32:30.610Z,14.05
2022-10-27T16:34:57.932Z,15.93
2022-10-27T16:37:30.656Z,10.40
2022-10-27T16:39:57.431Z,14.35
2022-10-27T16:42:25.274Z,10.80
2022-10-27T16:44:52.024Z,11.95
2022-10-27T16:47:20.944Z,11.95
2022-10-27T16:49:48.957Z,7.95
2022-10-27T16:52:16.073Z,10.38
2022-10-27T16:54:43.020Z,12.02
2022-10-27T16:57:10.991Z,12.18
2022-10-27T16:59:37.841Z,10.68
2022-10-27T17:02:04.824Z,12.32
2022-10-27T17:04:32.709Z,10.35
2022-10-27T17:06:59.538Z,14.85
2022-10-27T17:09:26.420Z,12.93
2022-10-27T17:11:53.098Z,13.48
2022-10-27T17:14:19.896Z,10.95
2022-10-27T17:16:46.651Z,14.05
2022-10-27T17:19:13.347Z,12.73
2022-10-27T17:21:40.353Z,13.38
2022-10-27T17:24:07.455Z,16.65
2022-10-27T17:26:34.228Z,16.48
2022-10-27T17:29:01.101Z,15.65
2022-10-27T17:31:28.263Z,16.30
2022-10-27T17:33:59.875Z,13.95
2022-10-27T17:36:27.432Z,15.90
2022-10-27T17:38:54.761Z,15.02
2022-10-27T17:41:21.869Z,18.88
2022-10-27T17:43:49.194Z,13.48
2022-10-27T17:46:20.718Z,11.98
2022-10-27T17:48:54.341Z,12.13
2022-10-27T17:51:23.652Z,14.65
2022-10-27T17:53:51.562Z,14.52
2022-10-27T17:56:23.989Z,15.02
2022-10-27T17:58:50.784Z,18.38
2022-10-27T18:01:25.997Z,16.50
2022-10-27T18:03:54.550Z,17.35
2022-10-27T18:06:23.798Z,18.15
2022-10-27T18:08:53.823Z,16.35
2022-10-27T18:11:26.732Z,33.20
2022-10-27T18:13:54.366Z,25.17
2022-10-27T18:16:24.541Z,21.02
2022-10-27T18:19:02.488Z,23.08
2022-10-27T18:21:31.225Z,24.85
2022-10-27T18:23:59.232Z,27.25
2022-10-27T18:26:27.310Z,21.23
2022-10-27T18:28:54.334Z,14.18
2022-10-27T18:31:23.123Z,32.38
2022-10-27T18:33:50.102Z,33.40
2022-10-27T18:36:18.839Z,26.00
2022-10-27T18:38:46.283Z,29.13
2022-10-27T18:41:15.197Z,22.20
2022-10-27T18:43:45.585Z,16.33
2022-10-27T18:46:13.932Z,19.50
2022-10-27T18:48:40.869Z,17.42
2022-10-27T18:51:11.273Z,13.88
2022-10-27T18:53:38.029Z,16.63
2022-10-27T18:56:07.160Z,14.35
2022-10-27T18:58:34.731Z,13.20
2022-10-27T19:01:09.519Z,13.32
2022-10-27T19:03:36.362Z,14.95
2022-10-27T19:06:05.128Z,15.45
2022-10-27T19:08:32.319Z,12.57
2022-10-27T19:11:07.331Z,11.52
2022-10-27T19:13:35.158Z,17.80
2022-10-27T19:16:03.410Z,16.13
2022-10-27T19:18:30.708Z,17.58
2022-10-27T19:20:58.782Z,18.08
2022-10-27T19:23:25.812Z,18.15
2022-10-27T19:25:53.514Z,22.98
2022-10-27T19:28:21.215Z,21.90
2022-10-27T19:30:57.592Z,17.55
2022-10-27T19:33:24.670Z,18.90
2022-10-27T19:35:51.536Z,21.70
2022-10-27T19:38:18.789Z,19.98
2022-10-27T19:40:45.887Z,19.15
2022-10-27T19:43:12.621Z,19.58
2022-10-27T19:45:39.279Z,20.67
2022-10-27T19:48:07.738Z,22.10
2022-10-27T19:50:34.416Z,21.30
2022-10-27T19:53:02.634Z,26.83
2022-10-27T19:55:30.895Z,28.75
2022-10-27T19:57:57.694Z,32.65
2022-10-27T20:00:24.594Z,30.23
2022-10-27T20:02:51.765Z,26.92
2022-10-27T20:05:23.796Z,28.65
2022-10-27T20:07:51.425Z,26.33
2022-10-27T20:10:19.082Z,26.40
2022-10-27T20:12:45.864Z,25.65
2022-10-27T20:15:13.233Z,29.08
2022-10-27T20:17:40.341Z,28.00
2022-10-27T20:20:08.091Z,24.00
2022-10-27T20:22:34.977Z,22.00
2022-10-27T20:25:01.753Z,24.98
2022-10-27T20:27:29.648Z,21.15
2022-10-27T20:29:56.761Z,18.83
2022-10-27T20:32:24.026Z,21.00
2022-10-27T20:34:51.577Z,25.75
2022-10-27T20:37:18.386Z,28.30
2022-10-27T20:39:45.367Z,20.02
2022-10-27T20:42:12.281Z,18.45
2022-10-27T20:44:39.057Z,22.58
2022-10-27T20:47:05.799Z,22.80
2022-10-27T20:49:32.543Z,23.58
2022-10-27T20:51:59.177Z,21.73
2022-10-27T20:54:26.123Z,21.60
2022-10-27T20:56:53.714Z,15.38
2022-10-27T20:59:23.909Z,20.00
2022-10-27T21:01:54.323Z,16.17
2022-10-27T21:04:22.319Z,18.02
2022-10-27T21:06:50.533Z,16.88
2022-10-27T21:09:19.746Z,18.88
2022-10-27T21:11:46.982Z,14.68
2022-10-27T21:14:14.292Z,16.80
2022-10-27T21:16:41.167Z,19.88
2022-10-27T21:19:09.502Z,18.35
2022-10-27T21:21:37.034Z,19.42
2022-10-27T21:24:04.759Z,21.75
2022-10-27T21:26:31.978Z,31.77
2022-10-27T21:28:59.548Z,24.15
2022-10-27T21:31:29.175Z,31.42
2022-10-27T21:33:56.613Z,23.98
2022-10-27T21:36:23.499Z,24.00
2022-10-27T21:38:51.179Z,24.20
2022-10-27T21:41:20.392Z,29.27
2022-10-27T21:43:50.252Z,21.10
2022-10-27T21:46:19.684Z,29.85
2022-10-27T21:48:46.808Z,22.10
2022-10-27T21:51:15.258Z,25.48
2022-10-27T21:53:42.781Z,24.92
2022-10-27T21:56:11.063Z,20.02
2022-10-27T21:58:38.327Z,20.38
2022-10-27T22:01:10.802Z,23.42
2022-10-27T22:03:38.041Z,19.52
2022-10-27T22:06:05.485Z,16.70
2022-10-27T22:08:32.522Z,18.80
2022-10-27T22:11:03.862Z,19.95
2022-10-27T22:13:30.692Z,19.75
2022-10-27T22:16:06.784Z,19.02
2022-10-27T22:18:33.950Z,20.90
2022-10-27T22:21:00.663Z,18.70
2022-10-27T22:23:27.443Z,20.23
2022-10-27T22:25:54.379Z,19.00
2022-10-27T22:28:21.132Z,16.98
2022-10-27T22:30:47.857Z,16.75
2022-10-27T22:33:14.613Z,15.60
2022-10-27T22:35:41.407Z,16.98
2022-10-27T22:38:08.254Z,19.50
2022-10-27T22:40:34.954Z,14.85
2022-10-27T22:43:01.651Z,15.55
2022-10-27T22:45:28.542Z,14.82
2022-10-27T22:47:55.568Z,13.63
2022-10-27T22:50:22.373Z,15.13
2022-10-27T22:52:49.235Z,14.23
2022-10-27T22:55:16.116Z,15.85
2022-10-27T22:57:42.890Z,15.07
2022-10-27T23:00:10.229Z,18.50
2022-10-27T23:02:36.925Z,16.73
2022-10-27T23:05:04.165Z,13.25
2022-10-27T23:07:31.033Z,18.35
2022-10-27T23:09:57.886Z,16.17
2022-10-27T23:12:24.604Z,16.40
2022-10-27T23:14:51.542Z,13.48
2022-10-27T23:17:18.271Z,12.57
2022-10-27T23:19:44.960Z,14.45
2022-10-27T23:22:11.732Z,16.75
2022-10-27T23:24:38.410Z,10.13
2022-10-27T23:27:05.064Z,14.55
2022-10-27T23:29:31.973Z,11.90
2022-10-27T23:31:58.774Z,12.38
2022-10-27T23:34:25.641Z,12.52
2022-10-27T23:36:52.312Z,11.30
2022-10-27T23:39:19.003Z,15.55
2022-10-27T23:41:45.701Z,12.68
2022-10-27T23:44:12.668Z,12.45
2022-10-27T23:46:39.386Z,10.52
2022-10-27T23:49:06.136Z,9.65
2022-10-27T23:51:33.029Z,12.93
2022-10-27T23:54:00.034Z,10.40
2022-10-27T23:56:26.987Z,10.57
2022-10-27T23:58:54.404Z,11.02
